< < Back
Terminal Aerodrome Forecast


Current Version              Previous Versions:   1  2  3  4  5  6  7  8  9  

Terminal Aerodrome Forecast

357
FTUS44 KOHX 010800 CCA
TAFCSV
TAF COR
KCSV 010840Z 0109/0206 00000KT 6SM BR SCT250
     FM011000 00000KT 4SM BR SKC
      TEMPO 0110/0112 1SM BR
     FM011400 23005KT P6SM SKC=

Latest METAR

326
SAUS70 KWBC 020000 RRD
MTRCSV
METAR KCSV 012353Z AUTO 00000KT 10SM CLR 20/14 A3004 RMK AO2 SLP159
T02000144 10272 20200 53005


USA.gov is the U.S. government's official web portal to all federal, state and local government web resources and services.